sensor_id;sensor_type;location;lat;lon;timestamp;P1;durP1;ratioP1;P2;durP2;ratioP2
51957;SDS011;41120;51.820;20.804;2023-06-19T00:00:53;23.27;;;15.43;;
51957;SDS011;41120;51.820;20.804;2023-06-19T00:03:36;17.58;;;13.38;;
51957;SDS011;41120;51.820;20.804;2023-06-19T00:06:02;25.33;;;13.50;;
51957;SDS011;41120;51.820;20.804;2023-06-19T00:08:28;21.13;;;13.77;;
51957;SDS011;41120;51.820;20.804;2023-06-19T00:10:54;18.97;;;12.33;;
51957;SDS011;41120;51.820;20.804;2023-06-19T00:13:20;21.30;;;12.27;;
51957;SDS011;41120;51.820;20.804;2023-06-19T00:15:45;14.67;;;11.90;;
51957;SDS011;41120;51.820;20.804;2023-06-19T00:18:12;21.60;;;13.70;;
51957;SDS011;41120;51.820;20.804;2023-06-19T00:20:37;20.63;;;15.50;;
51957;SDS011;41120;51.820;20.804;2023-06-19T00:23:05;21.47;;;15.90;;
51957;SDS011;41120;51.820;20.804;2023-06-19T00:25:31;22.17;;;16.60;;
51957;SDS011;41120;51.820;20.804;2023-06-19T00:27:58;25.23;;;17.77;;
51957;SDS011;41120;51.820;20.804;2023-06-19T00:30:24;23.93;;;17.10;;
51957;SDS011;41120;51.820;20.804;2023-06-19T00:32:49;24.77;;;18.10;;
51957;SDS011;41120;51.820;20.804;2023-06-19T00:35:18;24.10;;;17.60;;
51957;SDS011;41120;51.820;20.804;2023-06-19T00:37:44;27.23;;;18.97;;
51957;SDS011;41120;51.820;20.804;2023-06-19T00:40:43;29.00;;;18.83;;
51957;SDS011;41120;51.820;20.804;2023-06-19T00:43:02;26.45;;;19.83;;
51957;SDS011;41120;51.820;20.804;2023-06-19T00:45:28;27.60;;;19.30;;
51957;SDS011;41120;51.820;20.804;2023-06-19T00:47:54;26.90;;;19.13;;
51957;SDS011;41120;51.820;20.804;2023-06-19T00:50:21;27.30;;;19.13;;
51957;SDS011;41120;51.820;20.804;2023-06-19T00:52:47;28.93;;;20.27;;
51957;SDS011;41120;51.820;20.804;2023-06-19T00:55:13;26.70;;;18.83;;
51957;SDS011;41120;51.820;20.804;2023-06-19T00:57:40;28.40;;;19.67;;
51957;SDS011;41120;51.820;20.804;2023-06-19T01:00:06;24.67;;;18.67;;
51957;SDS011;41120;51.820;20.804;2023-06-19T01:02:34;27.67;;;19.00;;
51957;SDS011;41120;51.820;20.804;2023-06-19T01:05:00;26.47;;;19.00;;
51957;SDS011;41120;51.820;20.804;2023-06-19T01:07:32;24.93;;;18.67;;
51957;SDS011;41120;51.820;20.804;2023-06-19T01:10:09;24.52;;;18.33;;
51957;SDS011;41120;51.820;20.804;2023-06-19T01:12:37;26.13;;;18.87;;
51957;SDS011;41120;51.820;20.804;2023-06-19T01:15:04;23.33;;;17.93;;
51957;SDS011;41120;51.820;20.804;2023-06-19T01:17:31;25.33;;;19.40;;
51957;SDS011;41120;51.820;20.804;2023-06-19T01:19:57;26.93;;;17.97;;
51957;SDS011;41120;51.820;20.804;2023-06-19T01:22:27;24.50;;;17.43;;
51957;SDS011;41120;51.820;20.804;2023-06-19T01:24:53;26.50;;;18.20;;
51957;SDS011;41120;51.820;20.804;2023-06-19T01:27:19;24.53;;;18.90;;
51957;SDS011;41120;51.820;20.804;2023-06-19T01:29:45;24.07;;;17.80;;
51957;SDS011;41120;51.820;20.804;2023-06-19T01:32:15;24.83;;;17.90;;
51957;SDS011;41120;51.820;20.804;2023-06-19T01:34:44;24.10;;;15.80;;
51957;SDS011;41120;51.820;20.804;2023-06-19T01:37:11;24.33;;;14.23;;
51957;SDS011;41120;51.820;20.804;2023-06-19T01:39:37;25.07;;;13.20;;
51957;SDS011;41120;51.820;20.804;2023-06-19T01:42:04;32.27;;;13.40;;
51957;SDS011;41120;51.820;20.804;2023-06-19T01:44:30;20.30;;;13.20;;
51957;SDS011;41120;51.820;20.804;2023-06-19T01:46:57;23.13;;;13.07;;
51957;SDS011;41120;51.820;20.804;2023-06-19T01:49:23;23.80;;;14.53;;
51957;SDS011;41120;51.820;20.804;2023-06-19T01:51:49;27.27;;;14.07;;
51957;SDS011;41120;51.820;20.804;2023-06-19T01:54:15;23.13;;;14.47;;
51957;SDS011;41120;51.820;20.804;2023-06-19T01:56:41;22.27;;;14.93;;
51957;SDS011;41120;51.820;20.804;2023-06-19T01:59:07;22.47;;;15.87;;
51957;SDS011;41120;51.820;20.804;2023-06-19T02:01:33;22.80;;;16.07;;
51957;SDS011;41120;51.820;20.804;2023-06-19T02:03:58;20.73;;;15.50;;
51957;SDS011;41120;51.820;20.804;2023-06-19T02:06:24;23.50;;;16.87;;
51957;SDS011;41120;51.820;20.804;2023-06-19T02:08:50;22.73;;;16.73;;
51957;SDS011;41120;51.820;20.804;2023-06-19T02:11:15;27.63;;;18.67;;
51957;SDS011;41120;51.820;20.804;2023-06-19T02:13:41;23.00;;;16.77;;
51957;SDS011;41120;51.820;20.804;2023-06-19T02:16:08;26.03;;;17.63;;
51957;SDS011;41120;51.820;20.804;2023-06-19T02:18:34;27.03;;;17.40;;
51957;SDS011;41120;51.820;20.804;2023-06-19T02:21:00;32.60;;;17.77;;
51957;SDS011;41120;51.820;20.804;2023-06-19T02:23:26;33.80;;;17.93;;
51957;SDS011;41120;51.820;20.804;2023-06-19T02:25:52;24.80;;;16.77;;
51957;SDS011;41120;51.820;20.804;2023-06-19T02:28:17;28.00;;;17.77;;
51957;SDS011;41120;51.820;20.804;2023-06-19T02:30:43;27.73;;;16.83;;
51957;SDS011;41120;51.820;20.804;2023-06-19T02:33:10;24.00;;;17.53;;
51957;SDS011;41120;51.820;20.804;2023-06-19T02:35:36;23.73;;;17.07;;
51957;SDS011;41120;51.820;20.804;2023-06-19T02:38:02;28.43;;;19.30;;
51957;SDS011;41120;51.820;20.804;2023-06-19T02:40:30;30.60;;;19.73;;
51957;SDS011;41120;51.820;20.804;2023-06-19T02:42:55;26.97;;;18.80;;
51957;SDS011;41120;51.820;20.804;2023-06-19T02:45:21;28.67;;;18.87;;
51957;SDS011;41120;51.820;20.804;2023-06-19T02:47:46;26.73;;;18.27;;
51957;SDS011;41120;51.820;20.804;2023-06-19T02:50:13;39.93;;;17.80;;
51957;SDS011;41120;51.820;20.804;2023-06-19T02:52:38;49.60;;;18.73;;
51957;SDS011;41120;51.820;20.804;2023-06-19T02:55:05;20.80;;;16.20;;
51957;SDS011;41120;51.820;20.804;2023-06-19T02:57:32;21.00;;;15.47;;
51957;SDS011;41120;51.820;20.804;2023-06-19T02:59:59;27.37;;;17.53;;
51957;SDS011;41120;51.820;20.804;2023-06-19T03:02:26;27.33;;;19.07;;
51957;SDS011;41120;51.820;20.804;2023-06-19T03:04:52;30.60;;;20.03;;
51957;SDS011;41120;51.820;20.804;2023-06-19T03:07:17;34.23;;;21.63;;
51957;SDS011;41120;51.820;20.804;2023-06-19T03:09:44;35.97;;;22.27;;
51957;SDS011;41120;51.820;20.804;2023-06-19T03:12:09;32.13;;;20.80;;
51957;SDS011;41120;51.820;20.804;2023-06-19T03:14:35;33.03;;;21.90;;
51957;SDS011;41120;51.820;20.804;2023-06-19T03:17:01;33.93;;;21.37;;
51957;SDS011;41120;51.820;20.804;2023-06-19T03:19:27;35.27;;;22.83;;
51957;SDS011;41120;51.820;20.804;2023-06-19T03:21:52;42.20;;;21.60;;
51957;SDS011;41120;51.820;20.804;2023-06-19T03:24:20;36.83;;;20.60;;
51957;SDS011;41120;51.820;20.804;2023-06-19T03:26:46;29.70;;;18.03;;
51957;SDS011;41120;51.820;20.804;2023-06-19T03:29:12;26.10;;;17.23;;
51957;SDS011;41120;51.820;20.804;2023-06-19T03:31:37;26.03;;;15.03;;
51957;SDS011;41120;51.820;20.804;2023-06-19T03:34:05;27.73;;;15.63;;
51957;SDS011;41120;51.820;20.804;2023-06-19T03:36:30;24.60;;;13.47;;
51957;SDS011;41120;51.820;20.804;2023-06-19T03:38:56;20.10;;;13.30;;
51957;SDS011;41120;51.820;20.804;2023-06-19T03:41:22;15.10;;;11.93;;
51957;SDS011;41120;51.820;20.804;2023-06-19T03:43:48;21.37;;;12.77;;
51957;SDS011;41120;51.820;20.804;2023-06-19T03:46:14;16.57;;;12.00;;
51957;SDS011;41120;51.820;20.804;2023-06-19T03:48:39;16.87;;;12.23;;
51957;SDS011;41120;51.820;20.804;2023-06-19T03:51:05;15.57;;;12.53;;
51957;SDS011;41120;51.820;20.804;2023-06-19T03:53:31;14.17;;;12.03;;
51957;SDS011;41120;51.820;20.804;2023-06-19T03:55:57;13.70;;;11.43;;
51957;SDS011;41120;51.820;20.804;2023-06-19T03:58:24;14.83;;;11.73;;
51957;SDS011;41120;51.820;20.804;2023-06-19T04:00:50;16.17;;;12.23;;
51957;SDS011;41120;51.820;20.804;2023-06-19T04:03:17;19.03;;;12.23;;
51957;SDS011;41120;51.820;20.804;2023-06-19T04:05:43;15.43;;;11.00;;
51957;SDS011;41120;51.820;20.804;2023-06-19T04:08:09;15.90;;;9.93;;
51957;SDS011;41120;51.820;20.804;2023-06-19T04:10:34;14.60;;;10.40;;
51957;SDS011;41120;51.820;20.804;2023-06-19T04:13:00;12.90;;;9.77;;
51957;SDS011;41120;51.820;20.804;2023-06-19T04:15:25;10.40;;;9.40;;
51957;SDS011;41120;51.820;20.804;2023-06-19T04:17:51;11.27;;;9.37;;
51957;SDS011;41120;51.820;20.804;2023-06-19T04:20:17;13.67;;;9.70;;
51957;SDS011;41120;51.820;20.804;2023-06-19T04:22:43;11.07;;;9.50;;
51957;SDS011;41120;51.820;20.804;2023-06-19T04:25:08;12.80;;;8.77;;
51957;SDS011;41120;51.820;20.804;2023-06-19T04:27:36;12.37;;;9.07;;
51957;SDS011;41120;51.820;20.804;2023-06-19T04:30:04;10.00;;;8.57;;
51957;SDS011;41120;51.820;20.804;2023-06-19T04:32:32;10.60;;;8.03;;
51957;SDS011;41120;51.820;20.804;2023-06-19T04:34:57;9.27;;;8.03;;
51957;SDS011;41120;51.820;20.804;2023-06-19T04:37:23;9.80;;;8.20;;
51957;SDS011;41120;51.820;20.804;2023-06-19T04:39:49;9.30;;;7.67;;
51957;SDS011;41120;51.820;20.804;2023-06-19T04:42:16;9.83;;;8.20;;
51957;SDS011;41120;51.820;20.804;2023-06-19T04:44:47;9.57;;;8.43;;
51957;SDS011;41120;51.820;20.804;2023-06-19T04:47:13;11.00;;;9.10;;
51957;SDS011;41120;51.820;20.804;2023-06-19T04:49:39;13.10;;;8.33;;
51957;SDS011;41120;51.820;20.804;2023-06-19T04:52:05;9.97;;;8.23;;
51957;SDS011;41120;51.820;20.804;2023-06-19T04:54:30;11.27;;;8.53;;
51957;SDS011;41120;51.820;20.804;2023-06-19T04:56:58;7.97;;;7.17;;
51957;SDS011;41120;51.820;20.804;2023-06-19T04:59:24;8.90;;;8.00;;
51957;SDS011;41120;51.820;20.804;2023-06-19T05:01:50;10.50;;;8.07;;
51957;SDS011;41120;51.820;20.804;2023-06-19T05:04:19;8.80;;;7.90;;
51957;SDS011;41120;51.820;20.804;2023-06-19T05:06:45;10.73;;;7.53;;
51957;SDS011;41120;51.820;20.804;2023-06-19T05:09:10;10.05;;;7.60;;
51957;SDS011;41120;51.820;20.804;2023-06-19T05:11:36;7.93;;;7.13;;
51957;SDS011;41120;51.820;20.804;2023-06-19T05:14:02;7.85;;;7.05;;
51957;SDS011;41120;51.820;20.804;2023-06-19T05:16:28;8.30;;;7.05;;
51957;SDS011;41120;51.820;20.804;2023-06-19T05:18:54;7.50;;;6.80;;
51957;SDS011;41120;51.820;20.804;2023-06-19T05:21:19;10.07;;;6.95;;
51957;SDS011;41120;51.820;20.804;2023-06-19T05:23:46;7.20;;;6.40;;
51957;SDS011;41120;51.820;20.804;2023-06-19T05:26:16;9.10;;;6.63;;
51957;SDS011;41120;51.820;20.804;2023-06-19T05:28:42;7.47;;;6.70;;
51957;SDS011;41120;51.820;20.804;2023-06-19T05:31:08;7.60;;;6.90;;
51957;SDS011;41120;51.820;20.804;2023-06-19T05:33:33;7.60;;;6.50;;
51957;SDS011;41120;51.820;20.804;2023-06-19T05:35:59;7.47;;;6.50;;
51957;SDS011;41120;51.820;20.804;2023-06-19T05:38:24;8.50;;;6.50;;
51957;SDS011;41120;51.820;20.804;2023-06-19T05:40:51;8.50;;;7.22;;
51957;SDS011;41120;51.820;20.804;2023-06-19T05:43:17;7.30;;;6.63;;
51957;SDS011;41120;51.820;20.804;2023-06-19T05:45:44;8.73;;;6.68;;
51957;SDS011;41120;51.820;20.804;2023-06-19T05:48:09;7.50;;;6.70;;
51957;SDS011;41120;51.820;20.804;2023-06-19T05:50:35;8.13;;;7.15;;
51957;SDS011;41120;51.820;20.804;2023-06-19T05:53:01;7.65;;;6.95;;
51957;SDS011;41120;51.820;20.804;2023-06-19T05:55:27;7.38;;;6.65;;
51957;SDS011;41120;51.820;20.804;2023-06-19T05:57:53;7.70;;;7.00;;
51957;SDS011;41120;51.820;20.804;2023-06-19T06:00:19;7.28;;;6.68;;
51957;SDS011;41120;51.820;20.804;2023-06-19T06:02:44;7.35;;;6.65;;
51957;SDS011;41120;51.820;20.804;2023-06-19T06:05:10;7.20;;;6.60;;
51957;SDS011;41120;51.820;20.804;2023-06-19T06:07:36;7.90;;;7.10;;
51957;SDS011;41120;51.820;20.804;2023-06-19T06:10:02;7.35;;;6.50;;
51957;SDS011;41120;51.820;20.804;2023-06-19T06:12:27;7.13;;;6.43;;
51957;SDS011;41120;51.820;20.804;2023-06-19T06:14:53;7.72;;;6.93;;
51957;SDS011;41120;51.820;20.804;2023-06-19T06:17:19;8.05;;;7.25;;
51957;SDS011;41120;51.820;20.804;2023-06-19T06:19:45;7.43;;;6.72;;
51957;SDS011;41120;51.820;20.804;2023-06-19T06:22:11;9.02;;;7.05;;
51957;SDS011;41120;51.820;20.804;2023-06-19T06:24:37;6.90;;;6.18;;
51957;SDS011;41120;51.820;20.804;2023-06-19T06:27:03;7.63;;;6.82;;
51957;SDS011;41120;51.820;20.804;2023-06-19T06:29:30;8.82;;;7.15;;
51957;SDS011;41120;51.820;20.804;2023-06-19T06:32:05;7.05;;;6.38;;
51957;SDS011;41120;51.820;20.804;2023-06-19T06:34:34;9.35;;;6.82;;
51957;SDS011;41120;51.820;20.804;2023-06-19T06:37:01;7.82;;;6.28;;
51957;SDS011;41120;51.820;20.804;2023-06-19T06:39:27;7.88;;;6.20;;
51957;SDS011;41120;51.820;20.804;2023-06-19T06:41:53;7.18;;;6.47;;
51957;SDS011;41120;51.820;20.804;2023-06-19T06:44:20;7.70;;;6.90;;
51957;SDS011;41120;51.820;20.804;2023-06-19T06:46:45;7.32;;;6.63;;
51957;SDS011;41120;51.820;20.804;2023-06-19T06:49:11;9.18;;;6.20;;
51957;SDS011;41120;51.820;20.804;2023-06-19T06:51:37;8.05;;;7.30;;
51957;SDS011;41120;51.820;20.804;2023-06-19T06:54:04;7.20;;;6.50;;
51957;SDS011;41120;51.820;20.804;2023-06-19T06:56:29;7.38;;;6.68;;
51957;SDS011;41120;51.820;20.804;2023-06-19T06:58:55;7.93;;;7.13;;
51957;SDS011;41120;51.820;20.804;2023-06-19T07:01:20;8.07;;;7.28;;
51957;SDS011;41120;51.820;20.804;2023-06-19T07:03:46;9.20;;;7.18;;
51957;SDS011;41120;51.820;20.804;2023-06-19T07:06:12;8.55;;;7.07;;
51957;SDS011;41120;51.820;20.804;2023-06-19T07:08:37;7.97;;;7.18;;
51957;SDS011;41120;51.820;20.804;2023-06-19T07:11:06;7.63;;;6.65;;
51957;SDS011;41120;51.820;20.804;2023-06-19T07:13:32;9.27;;;6.45;;
51957;SDS011;41120;51.820;20.804;2023-06-19T07:15:58;8.13;;;7.13;;
51957;SDS011;41120;51.820;20.804;2023-06-19T07:18:24;7.18;;;6.45;;
51957;SDS011;41120;51.820;20.804;2023-06-19T07:20:50;7.70;;;6.90;;
51957;SDS011;41120;51.820;20.804;2023-06-19T07:23:16;8.55;;;6.85;;
51957;SDS011;41120;51.820;20.804;2023-06-19T07:25:42;7.70;;;6.95;;
51957;SDS011;41120;51.820;20.804;2023-06-19T07:28:07;7.38;;;6.60;;
51957;SDS011;41120;51.820;20.804;2023-06-19T07:30:33;7.30;;;6.60;;
51957;SDS011;41120;51.820;20.804;2023-06-19T07:32:59;7.85;;;6.63;;
51957;SDS011;41120;51.820;20.804;2023-06-19T07:35:24;8.90;;;7.05;;
51957;SDS011;41120;51.820;20.804;2023-06-19T07:37:50;8.20;;;7.40;;
51957;SDS011;41120;51.820;20.804;2023-06-19T07:40:16;10.10;;;7.28;;
51957;SDS011;41120;51.820;20.804;2023-06-19T07:42:41;9.20;;;8.02;;
51957;SDS011;41120;51.820;20.804;2023-06-19T07:45:07;8.35;;;7.50;;
51957;SDS011;41120;51.820;20.804;2023-06-19T07:47:33;7.40;;;6.70;;
51957;SDS011;41120;51.820;20.804;2023-06-19T07:49:59;8.65;;;7.40;;
51957;SDS011;41120;51.820;20.804;2023-06-19T07:52:24;7.55;;;6.53;;
51957;SDS011;41120;51.820;20.804;2023-06-19T07:54:57;7.55;;;6.28;;
51957;SDS011;41120;51.820;20.804;2023-06-19T07:57:23;7.15;;;6.43;;
51957;SDS011;41120;51.820;20.804;2023-06-19T07:59:49;7.45;;;6.53;;
51957;SDS011;41120;51.820;20.804;2023-06-19T08:02:15;6.95;;;6.25;;
51957;SDS011;41120;51.820;20.804;2023-06-19T08:05:00;6.22;;;5.63;;
51957;SDS011;41120;51.820;20.804;2023-06-19T08:07:26;6.63;;;5.93;;
51957;SDS011;41120;51.820;20.804;2023-06-19T08:09:52;5.63;;;5.13;;
51957;SDS011;41120;51.820;20.804;2023-06-19T08:12:17;5.57;;;5.00;;
51957;SDS011;41120;51.820;20.804;2023-06-19T08:14:43;5.25;;;4.75;;
51957;SDS011;41120;51.820;20.804;2023-06-19T08:17:08;6.82;;;4.90;;
51957;SDS011;41120;51.820;20.804;2023-06-19T08:19:34;5.85;;;5.32;;
51957;SDS011;41120;51.820;20.804;2023-06-19T08:22:00;6.68;;;6.07;;
51957;SDS011;41120;51.820;20.804;2023-06-19T08:24:25;7.50;;;6.70;;
51957;SDS011;41120;51.820;20.804;2023-06-19T08:26:51;6.68;;;5.85;;
51957;SDS011;41120;51.820;20.804;2023-06-19T08:29:18;8.68;;;5.75;;
51957;SDS011;41120;51.820;20.804;2023-06-19T08:31:44;7.32;;;6.63;;
51957;SDS011;41120;51.820;20.804;2023-06-19T08:34:09;6.40;;;5.80;;
51957;SDS011;41120;51.820;20.804;2023-06-19T08:36:35;6.15;;;5.55;;
51957;SDS011;41120;51.820;20.804;2023-06-19T08:39:01;6.00;;;5.38;;
51957;SDS011;41120;51.820;20.804;2023-06-19T08:41:27;6.63;;;5.93;;
51957;SDS011;41120;51.820;20.804;2023-06-19T08:43:52;7.13;;;6.43;;
51957;SDS011;41120;51.820;20.804;2023-06-19T08:46:18;6.90;;;6.20;;
51957;SDS011;41120;51.820;20.804;2023-06-19T08:48:44;6.90;;;6.20;;
51957;SDS011;41120;51.820;20.804;2023-06-19T08:51:11;7.00;;;6.22;;
51957;SDS011;41120;51.820;20.804;2023-06-19T08:53:43;5.80;;;5.20;;
51957;SDS011;41120;51.820;20.804;2023-06-19T08:56:09;6.53;;;5.85;;
51957;SDS011;41120;51.820;20.804;2023-06-19T08:58:36;7.20;;;6.20;;
51957;SDS011;41120;51.820;20.804;2023-06-19T09:01:02;6.93;;;5.97;;
51957;SDS011;41120;51.820;20.804;2023-06-19T09:03:29;6.60;;;5.32;;
51957;SDS011;41120;51.820;20.804;2023-06-19T09:05:55;6.50;;;5.90;;
51957;SDS011;41120;51.820;20.804;2023-06-19T09:08:21;5.90;;;5.30;;
51957;SDS011;41120;51.820;20.804;2023-06-19T09:13:21;5.60;;;5.00;;
51957;SDS011;41120;51.820;20.804;2023-06-19T09:15:47;5.32;;;4.82;;
51957;SDS011;41120;51.820;20.804;2023-06-19T09:18:13;5.78;;;5.18;;
51957;SDS011;41120;51.820;20.804;2023-06-19T09:20:40;4.88;;;4.38;;
51957;SDS011;41120;51.820;20.804;2023-06-19T09:23:09;5.43;;;4.82;;
51957;SDS011;41120;51.820;20.804;2023-06-19T09:25:49;4.55;;;4.15;;
51957;SDS011;41120;51.820;20.804;2023-06-19T09:28:22;5.13;;;4.63;;
51957;SDS011;41120;51.820;20.804;2023-06-19T09:30:58;4.95;;;4.45;;
51957;SDS011;41120;51.820;20.804;2023-06-19T09:33:30;4.50;;;3.97;;
51957;SDS011;41120;51.820;20.804;2023-06-19T09:35:56;5.03;;;4.53;;
51957;SDS011;41120;51.820;20.804;2023-06-19T09:38:26;5.15;;;4.65;;
51957;SDS011;41120;51.820;20.804;2023-06-19T09:40:52;4.55;;;4.00;;
51957;SDS011;41120;51.820;20.804;2023-06-19T09:43:19;5.93;;;4.13;;
51957;SDS011;41120;51.820;20.804;2023-06-19T09:45:49;5.25;;;4.60;;
51957;SDS011;41120;51.820;20.804;2023-06-19T09:48:18;6.80;;;4.70;;
51957;SDS011;41120;51.820;20.804;2023-06-19T09:50:45;5.47;;;4.50;;
51957;SDS011;41120;51.820;20.804;2023-06-19T09:53:13;5.00;;;4.50;;
51957;SDS011;41120;51.820;20.804;2023-06-19T09:55:40;5.15;;;4.65;;
51957;SDS011;41120;51.820;20.804;2023-06-19T09:58:05;5.82;;;5.32;;
51957;SDS011;41120;51.820;20.804;2023-06-19T10:00:31;6.53;;;4.72;;
51957;SDS011;41120;51.820;20.804;2023-06-19T10:02:57;4.78;;;4.38;;
51957;SDS011;41120;51.820;20.804;2023-06-19T10:05:30;4.20;;;3.80;;
51957;SDS011;41120;51.820;20.804;2023-06-19T10:07:56;5.13;;;4.35;;
51957;SDS011;41120;51.820;20.804;2023-06-19T10:10:26;4.95;;;4.30;;
51957;SDS011;41120;51.820;20.804;2023-06-19T10:12:52;3.97;;;3.63;;
51957;SDS011;41120;51.820;20.804;2023-06-19T10:15:24;4.15;;;3.75;;
51957;SDS011;41120;51.820;20.804;2023-06-19T10:17:50;4.30;;;3.60;;
51957;SDS011;41120;51.820;20.804;2023-06-19T10:23:19;3.95;;;3.55;;
51957;SDS011;41120;51.820;20.804;2023-06-19T10:25:38;4.20;;;3.78;;
51957;SDS011;41120;51.820;20.804;2023-06-19T10:28:04;4.80;;;3.90;;
51957;SDS011;41120;51.820;20.804;2023-06-19T10:30:33;4.20;;;3.80;;
51957;SDS011;41120;51.820;20.804;2023-06-19T10:33:02;5.78;;;4.18;;
51957;SDS011;41120;51.820;20.804;2023-06-19T10:35:37;5.10;;;4.60;;
51957;SDS011;41120;51.820;20.804;2023-06-19T10:38:03;4.38;;;3.97;;
51957;SDS011;41120;51.820;20.804;2023-06-19T10:40:29;3.80;;;3.40;;
51957;SDS011;41120;51.820;20.804;2023-06-19T10:42:54;4.20;;;3.80;;
51957;SDS011;41120;51.820;20.804;2023-06-19T10:45:21;5.03;;;4.07;;
51957;SDS011;41120;51.820;20.804;2023-06-19T10:47:54;5.97;;;4.82;;
51957;SDS011;41120;51.820;20.804;2023-06-19T10:50:20;4.68;;;4.20;;
51957;SDS011;41120;51.820;20.804;2023-06-19T10:52:47;4.22;;;3.83;;
51957;SDS011;41120;51.820;20.804;2023-06-19T10:55:14;4.07;;;3.67;;
51957;SDS011;41120;51.820;20.804;2023-06-19T10:57:41;4.25;;;3.85;;
51957;SDS011;41120;51.820;20.804;2023-06-19T11:00:09;5.03;;;4.20;;
51957;SDS011;41120;51.820;20.804;2023-06-19T11:02:41;4.00;;;3.60;;
51957;SDS011;41120;51.820;20.804;2023-06-19T11:05:12;3.53;;;3.05;;
51957;SDS011;41120;51.820;20.804;2023-06-19T11:07:38;4.10;;;3.70;;
51957;SDS011;41120;51.820;20.804;2023-06-19T11:10:04;5.63;;;4.25;;
51957;SDS011;41120;51.820;20.804;2023-06-19T11:12:32;4.45;;;4.05;;
51957;SDS011;41120;51.820;20.804;2023-06-19T11:15:02;4.28;;;3.88;;
51957;SDS011;41120;51.820;20.804;2023-06-19T11:17:29;6.43;;;3.95;;
51957;SDS011;41120;51.820;20.804;2023-06-19T11:19:56;4.90;;;3.97;;
51957;SDS011;41120;51.820;20.804;2023-06-19T11:22:22;4.82;;;4.05;;
51957;SDS011;41120;51.820;20.804;2023-06-19T11:24:48;3.63;;;3.33;;
51957;SDS011;41120;51.820;20.804;2023-06-19T11:27:20;3.40;;;3.10;;
51957;SDS011;41120;51.820;20.804;2023-06-19T11:29:56;5.25;;;3.95;;
51957;SDS011;41120;51.820;20.804;2023-06-19T11:32:23;3.90;;;3.58;;
51957;SDS011;41120;51.820;20.804;2023-06-19T11:34:51;3.92;;;3.53;;
51957;SDS011;41120;51.820;20.804;2023-06-19T11:37:19;3.92;;;3.55;;
51957;SDS011;41120;51.820;20.804;2023-06-19T11:39:47;3.80;;;3.50;;
51957;SDS011;41120;51.820;20.804;2023-06-19T11:42:14;4.60;;;3.55;;
51957;SDS011;41120;51.820;20.804;2023-06-19T11:44:54;5.70;;;3.70;;
51957;SDS011;41120;51.820;20.804;2023-06-19T11:47:21;4.15;;;3.75;;
51957;SDS011;41120;51.820;20.804;2023-06-19T11:49:47;4.13;;;3.72;;
51957;SDS011;41120;51.820;20.804;2023-06-19T11:52:13;5.00;;;4.50;;
51957;SDS011;41120;51.820;20.804;2023-06-19T11:54:39;4.93;;;4.38;;
51957;SDS011;41120;51.820;20.804;2023-06-19T11:57:05;4.80;;;4.30;;
51957;SDS011;41120;51.820;20.804;2023-06-19T11:59:31;4.70;;;4.28;;
51957;SDS011;41120;51.820;20.804;2023-06-19T12:01:56;4.53;;;4.13;;
51957;SDS011;41120;51.820;20.804;2023-06-19T12:04:24;5.75;;;4.60;;
51957;SDS011;41120;51.820;20.804;2023-06-19T12:06:49;6.35;;;4.60;;
51957;SDS011;41120;51.820;20.804;2023-06-19T12:09:15;4.93;;;4.23;;
51957;SDS011;41120;51.820;20.804;2023-06-19T12:11:41;4.95;;;4.50;;
51957;SDS011;41120;51.820;20.804;2023-06-19T12:14:07;5.00;;;4.38;;
51957;SDS011;41120;51.820;20.804;2023-06-19T12:16:33;6.20;;;4.60;;
51957;SDS011;41120;51.820;20.804;2023-06-19T12:18:59;4.70;;;4.25;;
51957;SDS011;41120;51.820;20.804;2023-06-19T12:21:24;7.13;;;4.90;;
51957;SDS011;41120;51.820;20.804;2023-06-19T12:23:50;5.47;;;4.57;;
51957;SDS011;41120;51.820;20.804;2023-06-19T12:26:15;4.57;;;4.05;;
51957;SDS011;41120;51.820;20.804;2023-06-19T12:28:42;4.45;;;4.05;;
51957;SDS011;41120;51.820;20.804;2023-06-19T12:31:08;4.93;;;4.53;;
51957;SDS011;41120;51.820;20.804;2023-06-19T12:33:33;5.45;;;3.97;;
51957;SDS011;41120;51.820;20.804;2023-06-19T12:35:59;4.50;;;4.07;;
51957;SDS011;41120;51.820;20.804;2023-06-19T12:38:25;4.75;;;4.25;;
51957;SDS011;41120;51.820;20.804;2023-06-19T12:40:52;4.75;;;4.25;;
51957;SDS011;41120;51.820;20.804;2023-06-19T12:43:17;4.65;;;4.20;;
51957;SDS011;41120;51.820;20.804;2023-06-19T12:45:43;6.05;;;4.10;;
51957;SDS011;41120;51.820;20.804;2023-06-19T12:48:10;4.85;;;4.20;;
51957;SDS011;41120;51.820;20.804;2023-06-19T12:50:36;4.60;;;3.92;;
51957;SDS011;41120;51.820;20.804;2023-06-19T12:53:01;4.47;;;4.07;;
51957;SDS011;41120;51.820;20.804;2023-06-19T12:55:27;5.05;;;4.38;;
51957;SDS011;41120;51.820;20.804;2023-06-19T12:57:53;4.28;;;3.88;;
51957;SDS011;41120;51.820;20.804;2023-06-19T13:00:19;4.60;;;4.20;;
51957;SDS011;41120;51.820;20.804;2023-06-19T13:02:44;5.38;;;4.20;;
51957;SDS011;41120;51.820;20.804;2023-06-19T13:05:12;4.28;;;3.67;;
51957;SDS011;41120;51.820;20.804;2023-06-19T13:07:37;5.63;;;3.90;;
51957;SDS011;41120;51.820;20.804;2023-06-19T13:10:03;5.40;;;4.05;;
51957;SDS011;41120;51.820;20.804;2023-06-19T13:12:31;4.53;;;3.85;;
51957;SDS011;41120;51.820;20.804;2023-06-19T13:14:57;4.97;;;4.20;;
51957;SDS011;41120;51.820;20.804;2023-06-19T13:17:23;4.07;;;3.67;;
51957;SDS011;41120;51.820;20.804;2023-06-19T13:19:49;4.82;;;4.00;;
51957;SDS011;41120;51.820;20.804;2023-06-19T13:22:14;4.28;;;3.78;;
51957;SDS011;41120;51.820;20.804;2023-06-19T13:24:40;4.30;;;3.90;;
51957;SDS011;41120;51.820;20.804;2023-06-19T13:27:06;6.90;;;4.07;;
51957;SDS011;41120;51.820;20.804;2023-06-19T13:29:31;4.30;;;3.90;;
51957;SDS011;41120;51.820;20.804;2023-06-19T13:31:57;4.68;;;4.05;;
51957;SDS011;41120;51.820;20.804;2023-06-19T13:34:24;3.80;;;3.45;;
51957;SDS011;41120;51.820;20.804;2023-06-19T13:36:50;7.65;;;4.13;;
51957;SDS011;41120;51.820;20.804;2023-06-19T13:39:16;5.57;;;4.28;;
51957;SDS011;41120;51.820;20.804;2023-06-19T13:41:45;4.28;;;3.88;;
51957;SDS011;41120;51.820;20.804;2023-06-19T13:44:10;3.88;;;3.58;;
51957;SDS011;41120;51.820;20.804;2023-06-19T13:46:38;4.50;;;4.03;;
51957;SDS011;41120;51.820;20.804;2023-06-19T13:49:04;5.10;;;4.07;;
51957;SDS011;41120;51.820;20.804;2023-06-19T13:51:31;4.57;;;4.18;;
51957;SDS011;41120;51.820;20.804;2023-06-19T13:53:58;4.15;;;3.75;;
51957;SDS011;41120;51.820;20.804;2023-06-19T13:56:23;4.07;;;3.67;;
51957;SDS011;41120;51.820;20.804;2023-06-19T13:58:49;4.82;;;3.67;;
51957;SDS011;41120;51.820;20.804;2023-06-19T14:01:15;6.43;;;3.85;;
51957;SDS011;41120;51.820;20.804;2023-06-19T14:03:40;4.78;;;4.03;;
51957;SDS011;41120;51.820;20.804;2023-06-19T14:06:06;4.65;;;3.95;;
51957;SDS011;41120;51.820;20.804;2023-06-19T14:08:32;5.13;;;3.65;;
51957;SDS011;41120;51.820;20.804;2023-06-19T14:10:58;4.07;;;3.55;;
51957;SDS011;41120;51.820;20.804;2023-06-19T14:13:24;4.50;;;4.10;;
51957;SDS011;41120;51.820;20.804;2023-06-19T14:15:49;5.28;;;4.10;;
51957;SDS011;41120;51.820;20.804;2023-06-19T14:18:16;4.85;;;4.20;;
51957;SDS011;41120;51.820;20.804;2023-06-19T14:20:42;3.90;;;3.50;;
51957;SDS011;41120;51.820;20.804;2023-06-19T14:23:07;4.57;;;3.72;;
51957;SDS011;41120;51.820;20.804;2023-06-19T14:25:34;4.40;;;4.00;;
51957;SDS011;41120;51.820;20.804;2023-06-19T14:28:00;3.90;;;3.60;;